createdAt,value
2022-10-11T04:05:48.504Z,100968.78
2022-10-11T04:08:51.463Z,100966.41
2022-10-11T04:11:53.844Z,100973.16
2022-10-11T04:14:56.547Z,100981.25
2022-10-11T04:17:59.034Z,100970.62
2022-10-11T04:21:01.842Z,100966.44
2022-10-11T04:24:04.570Z,100985.16
2022-10-11T04:27:07.328Z,100969.50
2022-10-11T04:30:11.264Z,100972.22
2022-10-11T04:33:14.422Z,100970.84
2022-10-11T04:36:16.837Z,100976.59
2022-10-11T04:39:19.563Z,100981.12
2022-10-11T04:42:22.171Z,100974.69
2022-10-11T04:45:24.917Z,100976.06
2022-10-11T04:48:27.444Z,100970.66
2022-10-11T04:51:30.396Z,100973.53
2022-10-11T04:54:32.952Z,100968.16
2022-10-11T04:57:35.725Z,100968.16
2022-10-11T05:00:38.169Z,100963.94
2022-10-11T05:03:41.159Z,100968.47
2022-10-11T05:06:43.642Z,100968.66
2022-10-11T05:09:46.369Z,100976.56
2022-10-11T05:12:48.803Z,100969.00
2022-10-11T05:15:51.791Z,100975.25
2022-10-11T05:18:54.292Z,100970.19
2022-10-11T05:21:57.439Z,100980.84
2022-10-11T05:24:59.921Z,100973.41
2022-10-11T05:28:02.647Z,100985.87
2022-10-11T05:31:05.750Z,100980.34
2022-10-11T05:34:08.561Z,100984.03
2022-10-11T05:37:11.045Z,100983.03
2022-10-11T05:40:13.834Z,100983.84
2022-10-11T05:43:16.422Z,101000.38
2022-10-11T05:46:19.230Z,100999.34
2022-10-11T05:49:21.766Z,101000.19
2022-10-11T05:52:24.586Z,101000.38
2022-10-11T05:55:27.541Z,101003.75
2022-10-11T05:58:31.150Z,101009.69
2022-10-11T06:01:33.764Z,101011.69
2022-10-11T06:04:37.209Z,101011.50
2022-10-11T06:07:39.840Z,101012.16
2022-10-11T06:10:42.671Z,101017.41
2022-10-11T06:13:45.150Z,101021.62
2022-10-11T06:16:47.839Z,101020.28
2022-10-11T06:19:51.330Z,101031.69
2022-10-11T06:22:54.164Z,101034.72
2022-10-11T06:26:02.209Z,101029.09
2022-10-11T06:29:05.916Z,101029.87
2022-10-11T06:32:08.346Z,101028.16
2022-10-11T06:35:11.139Z,101033.87
2022-10-11T06:38:13.745Z,101033.13
2022-10-11T06:41:18.672Z,101032.59
2022-10-11T06:44:21.092Z,101035.62
2022-10-11T06:47:23.848Z,101032.94
2022-10-11T06:50:47.522Z,101029.72
2022-10-11T06:53:50.856Z,101027.31
2022-10-11T06:56:53.353Z,101032.50
2022-10-11T06:59:56.208Z,101034.16
2022-10-11T07:02:58.738Z,101042.22
2022-10-11T07:06:03.758Z,101042.66
2022-10-11T07:09:07.922Z,101042.03
2022-10-11T07:12:10.710Z,101044.00
2022-10-11T07:15:13.161Z,101047.22
2022-10-11T07:18:15.922Z,101057.41
2022-10-11T07:21:18.468Z,101055.22
2022-10-11T07:24:21.251Z,101047.25
2022-10-11T07:27:23.799Z,101048.72
2022-10-11T07:30:26.680Z,101053.09
2022-10-11T07:33:29.089Z,101050.59
2022-10-11T07:36:32.031Z,101053.06
2022-10-11T07:39:34.872Z,101047.19
2022-10-11T07:42:37.999Z,101044.13
2022-10-11T07:45:41.859Z,101044.63
2022-10-11T07:48:44.761Z,101052.97
2022-10-11T07:51:47.330Z,101041.38
2022-10-11T07:54:50.091Z,101049.34
2022-10-11T07:57:52.588Z,101050.63
2022-10-11T08:00:55.688Z,101048.09
2022-10-11T08:03:59.156Z,101048.56
2022-10-11T08:07:01.584Z,101057.41
2022-10-11T08:10:06.197Z,101056.31
2022-10-11T08:13:08.729Z,101058.19
2022-10-11T08:16:12.736Z,101051.66
2022-10-11T08:19:16.187Z,101052.38
2022-10-11T08:22:18.999Z,101058.72
2022-10-11T08:25:21.488Z,101062.72
2022-10-11T08:28:24.724Z,101055.97
2022-10-11T08:31:27.172Z,101058.53
2022-10-11T08:34:29.859Z,101054.72
2022-10-11T08:37:32.261Z,101054.13
2022-10-11T08:40:35.551Z,101064.06
2022-10-11T08:44:06.114Z,101058.84
2022-10-11T08:47:21.101Z,101059.00
2022-10-11T08:50:24.177Z,101051.75
2022-10-11T08:53:51.720Z,101054.44
2022-10-11T08:56:54.368Z,101045.53
2022-10-11T09:00:05.132Z,101050.37
2022-10-11T09:03:09.339Z,101046.00
2022-10-11T09:06:16.265Z,101049.78
2022-10-11T09:09:21.861Z,101049.19
2022-10-11T09:13:04.547Z,101042.41
2022-10-11T09:16:17.695Z,101052.50
2022-10-11T09:19:51.570Z,101039.34
2022-10-11T09:23:14.107Z,101049.59
2022-10-11T09:26:31.161Z,101053.94
2022-10-11T09:30:02.552Z,101061.63
2022-10-11T09:33:33.193Z,101066.88
2022-10-11T09:37:00.126Z,101056.75
2022-10-11T09:40:12.000Z,101060.66
2022-10-11T09:43:14.569Z,101060.03
2022-10-11T09:46:31.747Z,101052.16
2022-10-11T09:49:42.769Z,101055.09
2022-10-11T09:53:05.131Z,101052.44
2022-10-11T09:56:08.322Z,101044.56
2022-10-11T09:59:35.140Z,101046.87
2022-10-11T10:02:47.028Z,101051.09
2022-10-11T10:06:22.110Z,101062.25
2022-10-11T10:09:30.454Z,101063.34
2022-10-11T10:12:33.247Z,101057.06
2022-10-11T10:15:38.105Z,101049.47
2022-10-11T10:18:59.667Z,101051.91
2022-10-11T10:22:02.181Z,101034.34
2022-10-11T10:25:08.117Z,101032.50
2022-10-11T10:28:21.009Z,101038.84
2022-10-11T10:31:29.746Z,101025.78
2022-10-11T10:34:36.426Z,101019.53
2022-10-11T10:37:44.041Z,101034.09
2022-10-11T10:40:56.727Z,101024.09
2022-10-11T10:44:00.799Z,101021.38
2022-10-11T10:47:20.831Z,101019.63
2022-10-11T10:50:45.641Z,101021.25
2022-10-11T10:53:58.457Z,101019.94
2022-10-11T10:57:04.389Z,101020.75
2022-10-11T11:00:19.837Z,101019.16
2022-10-11T11:03:34.027Z,101010.34
2022-10-11T11:06:48.835Z,101007.84
2022-10-11T11:09:59.732Z,101011.75
2022-10-11T11:13:04.847Z,101010.03
2022-10-11T11:16:18.694Z,101004.91
2022-10-11T11:19:38.419Z,101006.00
2022-10-11T11:22:47.695Z,101009.81
2022-10-11T11:26:15.635Z,101010.16
2022-10-11T11:29:43.604Z,101006.56
2022-10-11T11:32:52.017Z,101001.09
2022-10-11T11:36:01.389Z,100987.81
2022-10-11T11:39:07.065Z,101000.91
2022-10-11T11:42:18.041Z,100995.41
2022-10-11T11:45:46.831Z,100988.72
2022-10-11T11:48:52.778Z,100990.31
2022-10-11T11:51:56.653Z,100985.31
2022-10-11T11:55:16.689Z,100989.06
2022-10-11T11:58:43.992Z,100988.66
2022-10-11T12:02:11.741Z,100984.69
2022-10-11T12:05:18.707Z,100979.19
2022-10-11T12:08:27.584Z,100986.25
2022-10-11T12:11:42.042Z,100985.97
2022-10-11T12:14:44.784Z,100975.34
2022-10-11T12:17:53.232Z,100982.87
2022-10-11T12:21:06.122Z,100975.13
2022-10-11T12:24:31.542Z,100977.06
2022-10-11T12:27:43.366Z,100971.88
2022-10-11T12:30:55.556Z,100965.53
2022-10-11T12:34:01.118Z,100971.31
2022-10-11T12:37:27.072Z,100962.31
2022-10-11T12:40:45.866Z,100962.84
2022-10-11T12:43:48.639Z,100961.44
2022-10-11T12:46:51.058Z,100964.72
2022-10-11T12:49:59.383Z,100963.09
2022-10-11T12:53:18.248Z,100959.81
2022-10-11T12:56:44.890Z,100959.25
2022-10-11T12:59:47.471Z,100959.63
2022-10-11T13:02:50.394Z,100956.63
2022-10-11T13:06:01.331Z,100957.81
2022-10-11T13:09:15.760Z,100953.19
2022-10-11T13:12:21.839Z,100951.50
2022-10-11T13:15:24.893Z,100963.25
2022-10-11T13:18:27.378Z,100966.50
2022-10-11T13:21:34.624Z,100957.69
2022-10-11T13:24:39.756Z,100960.41
2022-10-11T13:27:43.413Z,100958.97
2022-10-11T13:30:53.226Z,100952.88
2022-10-11T13:34:17.582Z,100958.16
2022-10-11T13:37:25.575Z,100954.31
2022-10-11T13:40:29.537Z,100952.16
2022-10-11T13:43:32.841Z,100952.69
2022-10-11T13:46:37.611Z,100957.66
2022-10-11T13:49:45.814Z,100956.72
2022-10-11T13:52:57.325Z,100955.87
2022-10-11T13:56:04.365Z,100953.84
2022-10-11T13:59:07.209Z,100965.34
2022-10-11T14:02:20.215Z,100961.22
2022-10-11T14:05:30.349Z,100965.50
2022-10-11T14:08:42.275Z,100960.09
2022-10-11T14:11:45.520Z,100960.88
2022-10-11T14:14:48.110Z,100960.69
2022-10-11T14:17:51.504Z,100959.44
2022-10-11T14:20:54.337Z,100957.12
2022-10-11T14:24:00.484Z,100968.41
2022-10-11T14:27:05.958Z,100969.47
2022-10-11T14:30:27.437Z,100969.69
2022-10-11T14:33:30.184Z,100967.59
2022-10-11T14:36:35.076Z,100962.87
2022-10-11T14:39:37.787Z,100970.19
2022-10-11T14:42:41.893Z,100960.31
2022-10-11T14:45:44.390Z,100965.44
2022-10-11T14:48:55.660Z,100969.00
2022-10-11T14:51:59.341Z,100971.12
2022-10-11T14:55:02.238Z,100954.59
2022-10-11T14:58:06.095Z,100967.28
2022-10-11T15:01:13.954Z,100969.19
2022-10-11T15:04:16.627Z,100970.25
2022-10-11T15:07:19.414Z,100958.03
2022-10-11T15:10:27.454Z,100962.66
2022-10-11T15:13:30.212Z,100961.38
2022-10-11T15:16:33.397Z,100967.47
2022-10-11T15:19:36.564Z,100965.81
2022-10-11T15:22:39.102Z,100970.25
2022-10-11T15:25:42.596Z,100972.34
2022-10-11T15:28:45.940Z,100977.03
2022-10-11T15:31:49.505Z,100975.13
2022-10-11T15:34:52.023Z,100977.47
2022-10-11T15:37:57.494Z,100975.81
2022-10-11T15:41:00.222Z,100984.62
2022-10-11T15:44:02.916Z,100985.94
2022-10-11T15:47:05.412Z,100990.16
2022-10-11T15:50:34.038Z,100996.69
2022-10-11T15:53:36.837Z,100996.28
